sensor_id;sensor_type;location;lat;lon;timestamp;temperature;humidity
752;DHT22;360;48.764;9.164;2022-10-16T00:00:37;15.60;99.90
752;DHT22;360;48.764;9.164;2022-10-16T00:03:05;15.60;99.90
752;DHT22;360;48.764;9.164;2022-10-16T00:05:32;15.70;99.90
752;DHT22;360;48.764;9.164;2022-10-16T00:07:59;15.70;99.90
752;DHT22;360;48.764;9.164;2022-10-16T00:10:28;15.70;99.90
752;DHT22;360;48.764;9.164;2022-10-16T00:12:56;15.80;99.90
752;DHT22;360;48.764;9.164;2022-10-16T00:15:23;15.60;99.90
752;DHT22;360;48.764;9.164;2022-10-16T00:17:50;15.50;99.90
752;DHT22;360;48.764;9.164;2022-10-16T00:20:17;15.50;99.90
752;DHT22;360;48.764;9.164;2022-10-16T00:22:43;15.50;99.90
752;DHT22;360;48.764;9.164;2022-10-16T00:25:10;15.40;99.90
752;DHT22;360;48.764;9.164;2022-10-16T00:27:37;15.30;99.90
752;DHT22;360;48.764;9.164;2022-10-16T00:30:07;15.30;99.90
752;DHT22;360;48.764;9.164;2022-10-16T00:32:34;15.30;99.90
752;DHT22;360;48.764;9.164;2022-10-16T00:35:01;15.20;99.90
752;DHT22;360;48.764;9.164;2022-10-16T00:37:29;15.20;99.90
752;DHT22;360;48.764;9.164;2022-10-16T00:39:56;15.20;99.90
752;DHT22;360;48.764;9.164;2022-10-16T00:42:22;15.20;99.90
752;DHT22;360;48.764;9.164;2022-10-16T00:44:51;15.20;99.90
752;DHT22;360;48.764;9.164;2022-10-16T00:47:24;15.20;99.90
752;DHT22;360;48.764;9.164;2022-10-16T00:49:57;15.10;99.90
752;DHT22;360;48.764;9.164;2022-10-16T00:52:25;15.20;99.90
752;DHT22;360;48.764;9.164;2022-10-16T00:54:52;15.20;99.90
752;DHT22;360;48.764;9.164;2022-10-16T00:57:20;15.20;99.90
752;DHT22;360;48.764;9.164;2022-10-16T00:59:47;15.20;99.90
752;DHT22;360;48.764;9.164;2022-10-16T01:02:16;15.20;99.90
752;DHT22;360;48.764;9.164;2022-10-16T01:04:46;15.20;99.90
752;DHT22;360;48.764;9.164;2022-10-16T01:07:20;15.20;99.90
752;DHT22;360;48.764;9.164;2022-10-16T01:10:01;15.20;99.90
752;DHT22;360;48.764;9.164;2022-10-16T01:12:37;15.20;99.90
752;DHT22;360;48.764;9.164;2022-10-16T01:15:11;15.20;99.90
752;DHT22;360;48.764;9.164;2022-10-16T01:17:44;15.20;99.90
752;DHT22;360;48.764;9.164;2022-10-16T01:20:22;15.10;99.90
752;DHT22;360;48.764;9.164;2022-10-16T01:23:03;15.10;99.90
752;DHT22;360;48.764;9.164;2022-10-16T01:28:30;15.10;99.90
752;DHT22;360;48.764;9.164;2022-10-16T01:30:59;15.20;99.90
752;DHT22;360;48.764;9.164;2022-10-16T01:33:30;15.20;99.90
752;DHT22;360;48.764;9.164;2022-10-16T01:36:05;15.20;99.90
752;DHT22;360;48.764;9.164;2022-10-16T01:38:36;15.20;99.90
752;DHT22;360;48.764;9.164;2022-10-16T01:41:08;15.20;99.90
752;DHT22;360;48.764;9.164;2022-10-16T01:43:39;15.20;99.90
752;DHT22;360;48.764;9.164;2022-10-16T01:46:08;15.20;99.90
752;DHT22;360;48.764;9.164;2022-10-16T01:48:36;15.20;99.90
752;DHT22;360;48.764;9.164;2022-10-16T01:51:05;15.30;99.90
752;DHT22;360;48.764;9.164;2022-10-16T01:53:33;15.30;99.90
752;DHT22;360;48.764;9.164;2022-10-16T01:56:04;15.20;99.90
752;DHT22;360;48.764;9.164;2022-10-16T01:58:34;15.20;99.90
752;DHT22;360;48.764;9.164;2022-10-16T02:01:04;15.20;99.90
752;DHT22;360;48.764;9.164;2022-10-16T02:03:34;15.20;99.90
752;DHT22;360;48.764;9.164;2022-10-16T02:06:03;15.20;99.90
752;DHT22;360;48.764;9.164;2022-10-16T02:08:30;15.30;99.90
752;DHT22;360;48.764;9.164;2022-10-16T02:10:58;15.20;99.90
752;DHT22;360;48.764;9.164;2022-10-16T02:13:30;15.20;99.90
752;DHT22;360;48.764;9.164;2022-10-16T02:15:58;15.10;99.90
752;DHT22;360;48.764;9.164;2022-10-16T02:18:26;15.20;99.90
752;DHT22;360;48.764;9.164;2022-10-16T02:20:57;15.20;99.90
752;DHT22;360;48.764;9.164;2022-10-16T02:23:33;15.30;99.90
752;DHT22;360;48.764;9.164;2022-10-16T02:26:04;15.40;99.90
752;DHT22;360;48.764;9.164;2022-10-16T02:28:37;15.40;99.90
752;DHT22;360;48.764;9.164;2022-10-16T02:31:09;15.40;99.90
752;DHT22;360;48.764;9.164;2022-10-16T02:33:39;15.40;99.90
752;DHT22;360;48.764;9.164;2022-10-16T02:36:07;15.30;99.90
752;DHT22;360;48.764;9.164;2022-10-16T02:38:34;15.30;99.90
752;DHT22;360;48.764;9.164;2022-10-16T02:41:02;15.30;99.90
752;DHT22;360;48.764;9.164;2022-10-16T02:43:29;15.40;99.90
752;DHT22;360;48.764;9.164;2022-10-16T02:45:56;15.40;99.90
752;DHT22;360;48.764;9.164;2022-10-16T02:48:23;15.40;99.90
752;DHT22;360;48.764;9.164;2022-10-16T02:50:51;15.30;99.90
752;DHT22;360;48.764;9.164;2022-10-16T02:53:18;15.40;99.90
752;DHT22;360;48.764;9.164;2022-10-16T02:55:45;15.40;99.90
752;DHT22;360;48.764;9.164;2022-10-16T02:58:11;15.30;99.90
752;DHT22;360;48.764;9.164;2022-10-16T03:00:38;15.30;99.90
752;DHT22;360;48.764;9.164;2022-10-16T03:03:05;15.30;99.90
752;DHT22;360;48.764;9.164;2022-10-16T03:05:32;15.30;99.90
752;DHT22;360;48.764;9.164;2022-10-16T03:08:00;15.20;99.90
752;DHT22;360;48.764;9.164;2022-10-16T03:10:27;15.20;99.90
752;DHT22;360;48.764;9.164;2022-10-16T03:12:54;15.20;99.90
752;DHT22;360;48.764;9.164;2022-10-16T03:15:21;15.20;99.90
752;DHT22;360;48.764;9.164;2022-10-16T03:17:48;15.30;99.90
752;DHT22;360;48.764;9.164;2022-10-16T03:20:14;15.30;99.90
752;DHT22;360;48.764;9.164;2022-10-16T03:22:41;15.30;99.90
752;DHT22;360;48.764;9.164;2022-10-16T03:25:09;15.20;99.90
752;DHT22;360;48.764;9.164;2022-10-16T03:27:36;15.20;99.90
752;DHT22;360;48.764;9.164;2022-10-16T03:30:04;15.20;99.90
752;DHT22;360;48.764;9.164;2022-10-16T03:32:31;15.20;99.90
752;DHT22;360;48.764;9.164;2022-10-16T03:34:57;15.20;99.90
752;DHT22;360;48.764;9.164;2022-10-16T03:37:24;15.30;99.90
752;DHT22;360;48.764;9.164;2022-10-16T03:39:51;15.20;99.90
752;DHT22;360;48.764;9.164;2022-10-16T03:42:20;15.20;99.90
752;DHT22;360;48.764;9.164;2022-10-16T03:44:46;15.10;99.90
752;DHT22;360;48.764;9.164;2022-10-16T03:47:13;15.10;99.90
752;DHT22;360;48.764;9.164;2022-10-16T03:49:40;15.10;99.90
752;DHT22;360;48.764;9.164;2022-10-16T03:52:07;15.10;99.90
752;DHT22;360;48.764;9.164;2022-10-16T03:54:34;15.00;99.90
752;DHT22;360;48.764;9.164;2022-10-16T03:57:00;15.00;99.90
752;DHT22;360;48.764;9.164;2022-10-16T03:59:28;15.20;99.90
752;DHT22;360;48.764;9.164;2022-10-16T04:01:55;15.10;99.90
752;DHT22;360;48.764;9.164;2022-10-16T04:04:22;15.00;99.90
752;DHT22;360;48.764;9.164;2022-10-16T04:06:50;15.00;99.90
752;DHT22;360;48.764;9.164;2022-10-16T04:09:17;14.90;99.90
752;DHT22;360;48.764;9.164;2022-10-16T04:11:43;14.90;99.90
752;DHT22;360;48.764;9.164;2022-10-16T04:14:10;15.00;99.90
752;DHT22;360;48.764;9.164;2022-10-16T04:16:38;15.00;99.90
752;DHT22;360;48.764;9.164;2022-10-16T04:19:05;15.00;99.90
752;DHT22;360;48.764;9.164;2022-10-16T04:21:32;14.90;99.90
752;DHT22;360;48.764;9.164;2022-10-16T04:23:59;15.00;99.90
752;DHT22;360;48.764;9.164;2022-10-16T04:26:26;14.90;99.90
752;DHT22;360;48.764;9.164;2022-10-16T04:28:52;14.90;99.90
752;DHT22;360;48.764;9.164;2022-10-16T06:56:25;14.90;99.90
752;DHT22;360;48.764;9.164;2022-10-16T06:58:53;15.40;99.90
752;DHT22;360;48.764;9.164;2022-10-16T07:01:22;15.40;99.90
752;DHT22;360;48.764;9.164;2022-10-16T07:03:49;15.50;99.90
752;DHT22;360;48.764;9.164;2022-10-16T07:06:18;15.50;99.90
752;DHT22;360;48.764;9.164;2022-10-16T07:08:47;15.60;99.90
752;DHT22;360;48.764;9.164;2022-10-16T07:11:16;15.70;99.90
752;DHT22;360;48.764;9.164;2022-10-16T07:13:43;15.70;99.90
752;DHT22;360;48.764;9.164;2022-10-16T07:16:13;15.80;99.90
752;DHT22;360;48.764;9.164;2022-10-16T07:18:40;15.80;99.90
752;DHT22;360;48.764;9.164;2022-10-16T07:21:09;15.90;99.90
752;DHT22;360;48.764;9.164;2022-10-16T07:23:37;15.90;99.90
752;DHT22;360;48.764;9.164;2022-10-16T07:26:06;16.00;99.90
752;DHT22;360;48.764;9.164;2022-10-16T07:28:33;16.00;99.90
752;DHT22;360;48.764;9.164;2022-10-16T07:31:01;15.90;99.90
752;DHT22;360;48.764;9.164;2022-10-16T07:33:28;16.00;99.90
752;DHT22;360;48.764;9.164;2022-10-16T07:35:55;16.00;99.90
752;DHT22;360;48.764;9.164;2022-10-16T07:38:22;16.10;99.90
752;DHT22;360;48.764;9.164;2022-10-16T07:40:56;16.10;99.90
752;DHT22;360;48.764;9.164;2022-10-16T07:43:24;16.10;99.90
752;DHT22;360;48.764;9.164;2022-10-16T07:45:52;16.10;99.90
752;DHT22;360;48.764;9.164;2022-10-16T07:48:19;16.20;99.90
752;DHT22;360;48.764;9.164;2022-10-16T07:50:46;16.20;99.90
752;DHT22;360;48.764;9.164;2022-10-16T07:55:41;16.20;99.90
752;DHT22;360;48.764;9.164;2022-10-16T07:58:08;16.40;99.90
752;DHT22;360;48.764;9.164;2022-10-16T08:25:17;16.50;99.90
752;DHT22;360;48.764;9.164;2022-10-16T08:27:44;17.40;99.90
752;DHT22;360;48.764;9.164;2022-10-16T08:30:11;17.50;99.90
752;DHT22;360;48.764;9.164;2022-10-16T08:32:38;17.60;99.90
752;DHT22;360;48.764;9.164;2022-10-16T08:35:08;17.80;99.90
752;DHT22;360;48.764;9.164;2022-10-16T08:37:36;18.00;99.90
752;DHT22;360;48.764;9.164;2022-10-16T08:40:04;18.10;99.90
752;DHT22;360;48.764;9.164;2022-10-16T08:42:41;18.00;99.90
752;DHT22;360;48.764;9.164;2022-10-16T08:45:31;18.10;99.90
752;DHT22;360;48.764;9.164;2022-10-16T08:48:06;18.10;99.90
752;DHT22;360;48.764;9.164;2022-10-16T08:50:39;18.10;28.20
752;DHT22;360;48.764;9.164;2022-10-16T08:53:07;18.20;1.00
752;DHT22;360;48.764;9.164;2022-10-16T08:55:41;18.20;30.90
752;DHT22;360;48.764;9.164;2022-10-16T08:58:12;18.10;20.00
752;DHT22;360;48.764;9.164;2022-10-16T09:00:41;18.10;94.40
752;DHT22;360;48.764;9.164;2022-10-16T09:03:17;18.30;8.30
752;DHT22;360;48.764;9.164;2022-10-16T09:05:57;18.30;19.80
752;DHT22;360;48.764;9.164;2022-10-16T09:08:34;18.40;1.00
752;DHT22;360;48.764;9.164;2022-10-16T09:11:10;18.50;1.00
752;DHT22;360;48.764;9.164;2022-10-16T09:13:46;18.60;1.00
752;DHT22;360;48.764;9.164;2022-10-16T09:16:18;18.60;1.00
752;DHT22;360;48.764;9.164;2022-10-16T09:18:54;18.80;99.90
752;DHT22;360;48.764;9.164;2022-10-16T09:21:26;18.90;99.90
752;DHT22;360;48.764;9.164;2022-10-16T09:23:57;18.90;99.90
752;DHT22;360;48.764;9.164;2022-10-16T09:26:26;18.90;1.00
752;DHT22;360;48.764;9.164;2022-10-16T09:28:53;19.00;99.90
752;DHT22;360;48.764;9.164;2022-10-16T09:31:21;19.00;99.90
752;DHT22;360;48.764;9.164;2022-10-16T09:33:52;19.20;1.00
752;DHT22;360;48.764;9.164;2022-10-16T09:36:20;19.20;1.00
752;DHT22;360;48.764;9.164;2022-10-16T09:38:49;19.20;26.30
752;DHT22;360;48.764;9.164;2022-10-16T09:41:21;19.30;1.00
752;DHT22;360;48.764;9.164;2022-10-16T09:43:52;19.40;99.90
752;DHT22;360;48.764;9.164;2022-10-16T09:46:28;19.40;99.90
752;DHT22;360;48.764;9.164;2022-10-16T09:48:57;19.40;99.90
752;DHT22;360;48.764;9.164;2022-10-16T09:51:26;19.50;1.00
752;DHT22;360;48.764;9.164;2022-10-16T10:06:25;19.80;1.00
752;DHT22;360;48.764;9.164;2022-10-16T12:22:59;20.70;1.00
752;DHT22;360;48.764;9.164;2022-10-16T12:25:28;25.00;99.90
752;DHT22;360;48.764;9.164;2022-10-16T12:27:57;25.00;99.90
752;DHT22;360;48.764;9.164;2022-10-16T12:30:26;24.90;99.90
752;DHT22;360;48.764;9.164;2022-10-16T12:32:56;24.80;99.90
752;DHT22;360;48.764;9.164;2022-10-16T12:35:27;24.70;99.90
752;DHT22;360;48.764;9.164;2022-10-16T12:38:05;24.70;99.90
752;DHT22;360;48.764;9.164;2022-10-16T12:40:34;24.80;99.90
752;DHT22;360;48.764;9.164;2022-10-16T12:43:12;24.80;99.90
752;DHT22;360;48.764;9.164;2022-10-16T12:45:39;25.40;99.90
752;DHT22;360;48.764;9.164;2022-10-16T12:48:20;24.90;99.90
752;DHT22;360;48.764;9.164;2022-10-16T12:50:48;24.50;99.90
752;DHT22;360;48.764;9.164;2022-10-16T12:53:18;24.20;99.90
752;DHT22;360;48.764;9.164;2022-10-16T12:55:52;24.30;99.90
752;DHT22;360;48.764;9.164;2022-10-16T12:58:33;24.20;99.90
752;DHT22;360;48.764;9.164;2022-10-16T13:01:09;24.00;99.90
752;DHT22;360;48.764;9.164;2022-10-16T13:03:53;23.90;99.90
752;DHT22;360;48.764;9.164;2022-10-16T13:06:33;23.70;99.90
752;DHT22;360;48.764;9.164;2022-10-16T13:09:23;23.80;99.90
752;DHT22;360;48.764;9.164;2022-10-16T13:12:10;23.70;99.90
752;DHT22;360;48.764;9.164;2022-10-16T13:17:46;24.10;99.90
752;DHT22;360;48.764;9.164;2022-10-16T13:20:22;24.00;99.90
752;DHT22;360;48.764;9.164;2022-10-16T13:23:00;23.70;99.90
752;DHT22;360;48.764;9.164;2022-10-16T13:25:39;23.60;99.90
752;DHT22;360;48.764;9.164;2022-10-16T13:28:11;23.50;99.90
752;DHT22;360;48.764;9.164;2022-10-16T13:30:40;23.70;99.90
752;DHT22;360;48.764;9.164;2022-10-16T13:33:14;23.60;99.90
752;DHT22;360;48.764;9.164;2022-10-16T13:35:48;23.60;99.90
752;DHT22;360;48.764;9.164;2022-10-16T13:38:20;23.60;99.90
752;DHT22;360;48.764;9.164;2022-10-16T13:40:55;23.50;99.90
752;DHT22;360;48.764;9.164;2022-10-16T13:43:25;23.50;99.90
752;DHT22;360;48.764;9.164;2022-10-16T13:45:59;23.50;99.90
752;DHT22;360;48.764;9.164;2022-10-16T13:48:27;23.60;99.90
752;DHT22;360;48.764;9.164;2022-10-16T13:51:05;23.60;99.90
752;DHT22;360;48.764;9.164;2022-10-16T13:53:35;23.80;99.90
752;DHT22;360;48.764;9.164;2022-10-16T13:56:04;23.90;99.90
752;DHT22;360;48.764;9.164;2022-10-16T13:58:31;23.80;99.90
752;DHT22;360;48.764;9.164;2022-10-16T14:01:00;23.60;99.90
752;DHT22;360;48.764;9.164;2022-10-16T14:03:28;23.60;99.90
752;DHT22;360;48.764;9.164;2022-10-16T14:05:57;23.60;99.90
752;DHT22;360;48.764;9.164;2022-10-16T14:08:26;23.60;99.90
752;DHT22;360;48.764;9.164;2022-10-16T14:10:56;23.40;99.90
752;DHT22;360;48.764;9.164;2022-10-16T14:13:30;23.30;99.90
752;DHT22;360;48.764;9.164;2022-10-16T14:16:01;23.30;99.90
752;DHT22;360;48.764;9.164;2022-10-16T14:18:29;23.30;99.90
752;DHT22;360;48.764;9.164;2022-10-16T14:21:03;23.40;99.90
752;DHT22;360;48.764;9.164;2022-10-16T14:23:32;23.40;99.90
752;DHT22;360;48.764;9.164;2022-10-16T14:26:14;23.30;99.90
752;DHT22;360;48.764;9.164;2022-10-16T14:28:42;23.20;99.90
752;DHT22;360;48.764;9.164;2022-10-16T14:31:36;23.20;99.90
752;DHT22;360;48.764;9.164;2022-10-16T14:34:22;23.10;99.90
752;DHT22;360;48.764;9.164;2022-10-16T14:36:50;23.10;99.90
752;DHT22;360;48.764;9.164;2022-10-16T14:39:19;22.90;99.90
752;DHT22;360;48.764;9.164;2022-10-16T14:41:49;22.80;99.90
752;DHT22;360;48.764;9.164;2022-10-16T14:44:18;23.00;99.90
752;DHT22;360;48.764;9.164;2022-10-16T14:46:45;22.80;99.90
752;DHT22;360;48.764;9.164;2022-10-16T14:49:18;22.80;99.90
752;DHT22;360;48.764;9.164;2022-10-16T14:51:46;23.20;99.90
752;DHT22;360;48.764;9.164;2022-10-16T14:54:14;23.30;99.90
752;DHT22;360;48.764;9.164;2022-10-16T14:56:46;23.50;99.90
752;DHT22;360;48.764;9.164;2022-10-16T14:59:19;23.20;99.90
752;DHT22;360;48.764;9.164;2022-10-16T15:01:46;23.60;99.90
752;DHT22;360;48.764;9.164;2022-10-16T15:04:13;23.90;99.90
752;DHT22;360;48.764;9.164;2022-10-16T15:06:41;23.80;99.90
752;DHT22;360;48.764;9.164;2022-10-16T15:09:08;24.10;99.90
752;DHT22;360;48.764;9.164;2022-10-16T15:11:35;24.40;99.90
752;DHT22;360;48.764;9.164;2022-10-16T15:14:02;24.50;99.90
752;DHT22;360;48.764;9.164;2022-10-16T15:16:31;24.30;99.90
752;DHT22;360;48.764;9.164;2022-10-16T15:18:58;24.10;99.90
752;DHT22;360;48.764;9.164;2022-10-16T15:21:27;24.70;99.90
752;DHT22;360;48.764;9.164;2022-10-16T15:23:55;25.30;99.90
752;DHT22;360;48.764;9.164;2022-10-16T15:26:23;25.20;99.90
752;DHT22;360;48.764;9.164;2022-10-16T15:28:50;24.90;99.90
752;DHT22;360;48.764;9.164;2022-10-16T15:31:16;24.50;99.90
752;DHT22;360;48.764;9.164;2022-10-16T15:33:45;25.00;99.90
752;DHT22;360;48.764;9.164;2022-10-16T15:36:23;25.10;99.90
752;DHT22;360;48.764;9.164;2022-10-16T15:38:50;24.60;99.90
752;DHT22;360;48.764;9.164;2022-10-16T15:41:18;24.00;99.90
752;DHT22;360;48.764;9.164;2022-10-16T15:43:48;23.70;99.90
752;DHT22;360;48.764;9.164;2022-10-16T15:48:42;23.60;99.90
752;DHT22;360;48.764;9.164;2022-10-16T15:51:10;23.00;1.00
752;DHT22;360;48.764;9.164;2022-10-16T15:53:37;23.20;1.00
752;DHT22;360;48.764;9.164;2022-10-16T15:56:04;23.50;1.00
752;DHT22;360;48.764;9.164;2022-10-16T15:58:32;23.60;99.90
752;DHT22;360;48.764;9.164;2022-10-16T16:01:00;23.00;99.90
752;DHT22;360;48.764;9.164;2022-10-16T16:03:27;22.60;1.00
752;DHT22;360;48.764;9.164;2022-10-16T16:05:54;22.30;1.00
752;DHT22;360;48.764;9.164;2022-10-16T16:15:51;22.20;99.90
752;DHT22;360;48.764;9.164;2022-10-16T16:18:18;21.00;87.10
752;DHT22;360;48.764;9.164;2022-10-16T16:20:45;20.70;1.00
752;DHT22;360;48.764;9.164;2022-10-16T16:23:12;20.60;99.90
752;DHT22;360;48.764;9.164;2022-10-16T16:25:40;20.50;1.00
752;DHT22;360;48.764;9.164;2022-10-16T16:28:07;20.40;99.90
752;DHT22;360;48.764;9.164;2022-10-16T16:30:35;20.20;1.00
752;DHT22;360;48.764;9.164;2022-10-16T16:33:03;20.00;15.10
752;DHT22;360;48.764;9.164;2022-10-16T16:35:29;19.90;35.00
752;DHT22;360;48.764;9.164;2022-10-16T17:29:34;19.70;99.90
752;DHT22;360;48.764;9.164;2022-10-16T17:32:01;18.00;99.90
752;DHT22;360;48.764;9.164;2022-10-16T17:34:29;18.00;99.90
752;DHT22;360;48.764;9.164;2022-10-16T17:36:56;17.90;99.90
752;DHT22;360;48.764;9.164;2022-10-16T17:39:23;17.80;99.90
752;DHT22;360;48.764;9.164;2022-10-16T17:41:50;17.80;99.90
752;DHT22;360;48.764;9.164;2022-10-16T17:44:17;17.70;99.90
752;DHT22;360;48.764;9.164;2022-10-16T17:46:47;17.60;99.90
752;DHT22;360;48.764;9.164;2022-10-16T17:49:14;17.60;99.90
752;DHT22;360;48.764;9.164;2022-10-16T17:51:43;17.50;99.90
752;DHT22;360;48.764;9.164;2022-10-16T17:54:10;17.40;99.90
752;DHT22;360;48.764;9.164;2022-10-16T17:56:39;17.40;99.90
752;DHT22;360;48.764;9.164;2022-10-16T17:59:05;17.20;99.90
752;DHT22;360;48.764;9.164;2022-10-16T18:01:34;17.20;99.90
752;DHT22;360;48.764;9.164;2022-10-16T18:04:03;17.10;99.90
752;DHT22;360;48.764;9.164;2022-10-16T18:06:32;17.10;99.90
752;DHT22;360;48.764;9.164;2022-10-16T18:09:02;17.00;99.90
752;DHT22;360;48.764;9.164;2022-10-16T18:11:29;16.90;99.90
752;DHT22;360;48.764;9.164;2022-10-16T18:13:57;16.90;99.90
752;DHT22;360;48.764;9.164;2022-10-16T18:16:25;16.90;99.90
752;DHT22;360;48.764;9.164;2022-10-16T18:18:53;16.80;99.90
752;DHT22;360;48.764;9.164;2022-10-16T18:21:21;16.70;99.90
752;DHT22;360;48.764;9.164;2022-10-16T18:23:49;16.60;99.90
752;DHT22;360;48.764;9.164;2022-10-16T18:26:17;16.60;99.90
752;DHT22;360;48.764;9.164;2022-10-16T18:28:43;16.60;99.90
752;DHT22;360;48.764;9.164;2022-10-16T18:31:11;16.60;99.90
752;DHT22;360;48.764;9.164;2022-10-16T18:33:39;16.50;99.90
752;DHT22;360;48.764;9.164;2022-10-16T18:36:12;16.50;99.90
752;DHT22;360;48.764;9.164;2022-10-16T18:38:40;16.50;99.90
752;DHT22;360;48.764;9.164;2022-10-16T18:41:07;16.50;99.90
752;DHT22;360;48.764;9.164;2022-10-16T18:43:36;16.40;99.90
752;DHT22;360;48.764;9.164;2022-10-16T18:46:06;16.40;99.90
752;DHT22;360;48.764;9.164;2022-10-16T18:48:33;16.50;99.90
752;DHT22;360;48.764;9.164;2022-10-16T18:51:08;16.50;99.90
752;DHT22;360;48.764;9.164;2022-10-16T18:53:35;16.50;99.90
752;DHT22;360;48.764;9.164;2022-10-16T18:56:02;16.50;99.90
752;DHT22;360;48.764;9.164;2022-10-16T18:58:29;16.50;99.90
752;DHT22;360;48.764;9.164;2022-10-16T19:01:02;16.40;99.90
752;DHT22;360;48.764;9.164;2022-10-16T19:03:29;16.50;99.90
752;DHT22;360;48.764;9.164;2022-10-16T19:05:59;16.50;99.90
752;DHT22;360;48.764;9.164;2022-10-16T19:08:25;16.50;99.90
752;DHT22;360;48.764;9.164;2022-10-16T19:10:52;16.50;99.90
752;DHT22;360;48.764;9.164;2022-10-16T19:13:19;16.40;99.90
752;DHT22;360;48.764;9.164;2022-10-16T19:15:46;16.30;99.90
752;DHT22;360;48.764;9.164;2022-10-16T19:18:14;16.30;99.90
752;DHT22;360;48.764;9.164;2022-10-16T19:20:41;16.30;99.90
752;DHT22;360;48.764;9.164;2022-10-16T19:23:08;16.30;99.90
752;DHT22;360;48.764;9.164;2022-10-16T19:25:36;16.30;99.90
752;DHT22;360;48.764;9.164;2022-10-16T19:28:05;16.30;99.90
752;DHT22;360;48.764;9.164;2022-10-16T19:30:35;16.30;99.90
752;DHT22;360;48.764;9.164;2022-10-16T19:33:02;16.30;99.90
752;DHT22;360;48.764;9.164;2022-10-16T19:35:30;16.20;99.90
752;DHT22;360;48.764;9.164;2022-10-16T19:37:57;16.20;99.90
752;DHT22;360;48.764;9.164;2022-10-16T19:40:24;16.10;99.90
752;DHT22;360;48.764;9.164;2022-10-16T19:42:51;16.10;99.90
752;DHT22;360;48.764;9.164;2022-10-16T19:45:19;16.20;99.90
752;DHT22;360;48.764;9.164;2022-10-16T19:47:46;16.30;99.90
752;DHT22;360;48.764;9.164;2022-10-16T19:50:13;16.20;99.90
752;DHT22;360;48.764;9.164;2022-10-16T19:52:42;16.30;99.90
752;DHT22;360;48.764;9.164;2022-10-16T19:55:09;16.30;99.90
752;DHT22;360;48.764;9.164;2022-10-16T19:57:36;16.30;99.90
752;DHT22;360;48.764;9.164;2022-10-16T20:00:04;16.20;99.90
752;DHT22;360;48.764;9.164;2022-10-16T20:02:31;16.30;99.90
752;DHT22;360;48.764;9.164;2022-10-16T20:04:58;16.30;99.90
752;DHT22;360;48.764;9.164;2022-10-16T20:07:25;16.30;99.90
752;DHT22;360;48.764;9.164;2022-10-16T20:09:54;16.40;99.90
752;DHT22;360;48.764;9.164;2022-10-16T20:12:20;16.40;99.90
752;DHT22;360;48.764;9.164;2022-10-16T20:14:47;16.40;99.90
752;DHT22;360;48.764;9.164;2022-10-16T20:17:14;16.40;99.90
752;DHT22;360;48.764;9.164;2022-10-16T20:19:41;16.40;99.90
752;DHT22;360;48.764;9.164;2022-10-16T20:22:08;16.40;99.90
752;DHT22;360;48.764;9.164;2022-10-16T20:24:35;16.40;99.90
752;DHT22;360;48.764;9.164;2022-10-16T20:27:03;16.40;99.90
752;DHT22;360;48.764;9.164;2022-10-16T20:29:30;16.50;99.90
752;DHT22;360;48.764;9.164;2022-10-16T20:31:57;16.40;99.90
752;DHT22;360;48.764;9.164;2022-10-16T20:34:24;16.30;99.90
752;DHT22;360;48.764;9.164;2022-10-16T20:36:50;16.20;99.90
752;DHT22;360;48.764;9.164;2022-10-16T20:39:17;16.30;99.90
752;DHT22;360;48.764;9.164;2022-10-16T20:41:44;16.30;99.90
752;DHT22;360;48.764;9.164;2022-10-16T20:44:12;16.20;99.90
752;DHT22;360;48.764;9.164;2022-10-16T20:46:39;16.20;99.90
752;DHT22;360;48.764;9.164;2022-10-16T20:49:06;16.20;99.90
752;DHT22;360;48.764;9.164;2022-10-16T20:51:33;16.30;99.90
752;DHT22;360;48.764;9.164;2022-10-16T20:54:01;16.20;99.90
752;DHT22;360;48.764;9.164;2022-10-16T20:56:30;16.10;99.90
752;DHT22;360;48.764;9.164;2022-10-16T20:58:57;16.20;99.90
752;DHT22;360;48.764;9.164;2022-10-16T21:01:27;16.00;99.90
752;DHT22;360;48.764;9.164;2022-10-16T21:03:57;16.00;99.90
752;DHT22;360;48.764;9.164;2022-10-16T21:06:24;15.90;99.90
752;DHT22;360;48.764;9.164;2022-10-16T21:08:51;15.90;99.90
752;DHT22;360;48.764;9.164;2022-10-16T21:11:20;15.90;99.90
752;DHT22;360;48.764;9.164;2022-10-16T21:13:50;15.80;99.90
752;DHT22;360;48.764;9.164;2022-10-16T21:16:17;15.70;99.90
752;DHT22;360;48.764;9.164;2022-10-16T21:18:45;15.60;99.90
752;DHT22;360;48.764;9.164;2022-10-16T21:21:18;15.50;99.90
752;DHT22;360;48.764;9.164;2022-10-16T21:23:46;15.40;99.90
752;DHT22;360;48.764;9.164;2022-10-16T21:26:13;15.40;99.90
752;DHT22;360;48.764;9.164;2022-10-16T21:28:40;15.40;99.90
752;DHT22;360;48.764;9.164;2022-10-16T21:31:11;15.40;99.90
752;DHT22;360;48.764;9.164;2022-10-16T21:33:38;15.30;99.90
752;DHT22;360;48.764;9.164;2022-10-16T21:36:13;15.20;99.90
752;DHT22;360;48.764;9.164;2022-10-16T21:38:40;15.00;99.90
752;DHT22;360;48.764;9.164;2022-10-16T21:41:16;15.00;99.90
752;DHT22;360;48.764;9.164;2022-10-16T21:43:43;15.10;99.90
752;DHT22;360;48.764;9.164;2022-10-16T21:46:10;15.10;99.90
752;DHT22;360;48.764;9.164;2022-10-16T21:48:37;15.00;99.90
752;DHT22;360;48.764;9.164;2022-10-16T21:51:07;15.00;99.90
752;DHT22;360;48.764;9.164;2022-10-16T21:53:35;14.90;99.90
752;DHT22;360;48.764;9.164;2022-10-16T21:56:03;14.90;99.90
752;DHT22;360;48.764;9.164;2022-10-16T21:58:30;14.90;99.90
752;DHT22;360;48.764;9.164;2022-10-16T22:00:57;14.80;99.90
752;DHT22;360;48.764;9.164;2022-10-16T22:03:24;14.70;99.90
752;DHT22;360;48.764;9.164;2022-10-16T22:05:51;14.60;99.90
752;DHT22;360;48.764;9.164;2022-10-16T22:08:18;14.60;99.90
752;DHT22;360;48.764;9.164;2022-10-16T22:10:46;14.50;99.90
752;DHT22;360;48.764;9.164;2022-10-16T22:13:13;14.50;99.90
752;DHT22;360;48.764;9.164;2022-10-16T22:15:47;14.50;99.90
752;DHT22;360;48.764;9.164;2022-10-16T22:18:16;14.40;99.90
752;DHT22;360;48.764;9.164;2022-10-16T22:20:43;14.40;99.90
752;DHT22;360;48.764;9.164;2022-10-16T22:23:10;14.40;99.90
752;DHT22;360;48.764;9.164;2022-10-16T22:25:37;14.50;99.90
752;DHT22;360;48.764;9.164;2022-10-16T22:28:05;14.50;99.90
752;DHT22;360;48.764;9.164;2022-10-16T22:30:33;14.40;99.90
752;DHT22;360;48.764;9.164;2022-10-16T22:33:00;14.40;99.90
752;DHT22;360;48.764;9.164;2022-10-16T22:35:27;14.40;99.90
752;DHT22;360;48.764;9.164;2022-10-16T22:37:54;14.40;99.90
752;DHT22;360;48.764;9.164;2022-10-16T22:40:21;14.30;99.90
752;DHT22;360;48.764;9.164;2022-10-16T22:42:48;14.30;99.90
752;DHT22;360;48.764;9.164;2022-10-16T22:45:16;14.30;99.90
752;DHT22;360;48.764;9.164;2022-10-16T22:47:43;14.10;99.90
752;DHT22;360;48.764;9.164;2022-10-16T22:50:10;14.10;99.90
752;DHT22;360;48.764;9.164;2022-10-16T22:52:36;14.10;99.90
752;DHT22;360;48.764;9.164;2022-10-16T22:55:04;14.10;99.90
752;DHT22;360;48.764;9.164;2022-10-16T22:57:31;14.10;99.90
752;DHT22;360;48.764;9.164;2022-10-16T22:59:58;14.00;99.90
752;DHT22;360;48.764;9.164;2022-10-16T23:02:26;14.00;99.90
752;DHT22;360;48.764;9.164;2022-10-16T23:04:52;14.00;99.90
752;DHT22;360;48.764;9.164;2022-10-16T23:07:19;14.20;99.90
752;DHT22;360;48.764;9.164;2022-10-16T23:09:46;14.30;99.90
752;DHT22;360;48.764;9.164;2022-10-16T23:12:13;14.10;99.90